Time;durP1;ratioP1;P1;durP2;ratioP2;P2;SDS_P1;SDS_P2;PMS_P1;PMS_P2;Temp;Humidity;BMP_temperature;BMP_pressure;BME280_temperature;BME280_humidity;BME280_pressure;Samples;Min_cycle;Max_cycle;Signal;HPM_P1;HPM_P2
2023/11/25 00:00:21;;;;;;;13.67;12.47;;;1.50;85.20;;;;;;5077377;28;20178;-86
2023/11/25 00:02:48;;;;;;;13.23;12.00;;;1.40;85.10;;;;;;5095350;28;20173;-87
2023/11/25 00:05:14;;;;;;;13.37;12.23;;;1.40;85.10;;;;;;5095263;28;20190;-86
2023/11/25 00:07:39;;;;;;;28.73;25.90;;;1.40;85.20;;;;;;5077183;28;20202;-87
2023/11/25 00:10:06;;;;;;;28.07;25.67;;;1.40;85.00;;;;;;5077236;28;20195;-86
2023/11/25 00:12:32;;;;;;;28.57;26.00;;;1.40;84.90;;;;;;5077149;28;20166;-86
2023/11/25 00:14:57;;;;;;;30.23;27.20;;;1.50;85.00;;;;;;5095112;28;20543;-86
2023/11/25 00:17:25;;;;;;;29.43;27.23;;;1.40;84.70;;;;;;5077658;28;20201;-86
2023/11/25 00:19:51;;;;;;;31.27;28.57;;;1.50;84.70;;;;;;5095179;28;20167;-86
2023/11/25 00:22:17;;;;;;;30.90;28.77;;;1.50;84.70;;;;;;5076758;28;20179;-87
2023/11/25 00:24:42;;;;;;;29.00;26.80;;;1.40;84.50;;;;;;5076858;28;20689;-86
2023/11/25 00:27:07;;;;;;;30.50;28.27;;;1.40;84.50;;;;;;5094803;28;20195;-87
2023/11/25 00:29:33;;;;;;;17.47;15.83;;;1.40;84.60;;;;;;5076731;28;20178;-86
2023/11/25 00:32:01;;;;;;;14.53;13.17;;;1.40;84.60;;;;;;5095117;28;20182;-87
2023/11/25 00:34:26;;;;;;;19.33;13.37;;;1.40;84.60;;;;;;5094739;28;20183;-87
2023/11/25 00:36:52;;;;;;;28.17;25.87;;;1.40;84.60;;;;;;5094667;28;20278;-87
2023/11/25 00:39:19;;;;;;;30.37;28.17;;;1.40;84.60;;;;;;5094642;28;20250;-87
2023/11/25 00:41:45;;;;;;;16.63;12.57;;;1.40;84.50;;;;;;5076258;28;20541;-86
2023/11/25 00:44:11;;;;;;;13.23;11.93;;;1.50;84.50;;;;;;5076919;28;20182;-86
2023/11/25 00:46:38;;;;;;;27.07;24.73;;;1.50;84.30;;;;;;5094473;28;20631;-87
2023/11/25 00:49:04;;;;;;;27.73;25.67;;;1.50;84.20;;;;;;5094642;28;20191;-87
2023/11/25 00:51:31;;;;;;;27.27;25.10;;;1.50;84.20;;;;;;5094392;28;20194;-87
2023/11/25 00:53:56;;;;;;;13.53;12.43;;;1.60;84.10;;;;;;5076278;28;20178;-90
2023/11/25 00:56:22;;;;;;;13.77;12.63;;;1.50;84.10;;;;;;5077035;28;20171;-87
2023/11/25 00:58:47;;;;;;;25.60;23.53;;;1.50;84.20;;;;;;5076350;28;20576;-88
2023/11/25 01:01:13;;;;;;;22.97;21.37;;;1.70;84.30;;;;;;5094550;28;20181;-88
2023/11/25 01:03:38;;;;;;;25.00;22.90;;;1.70;84.50;;;;;;5094365;28;20257;-88
2023/11/25 01:06:07;;;;;;;12.67;11.47;;;1.80;84.60;;;;;;5094443;28;20236;-89
2023/11/25 01:08:33;;;;;;;11.77;10.67;;;1.80;84.30;;;;;;5077010;28;20304;-87
2023/11/25 01:10:59;;;;;;;23.47;21.27;;;2.00;84.00;;;;;;5094151;28;20358;-86
2023/11/25 01:13:25;;;;;;;23.90;22.07;;;2.10;84.10;;;;;;5093980;28;20181;-87
2023/11/25 01:15:54;;;;;;;25.83;23.57;;;2.20;83.90;;;;;;5093951;28;20201;-87
2023/11/25 01:18:20;;;;;;;12.57;10.03;;;2.30;83.70;;;;;;5075881;28;20268;-87
2023/11/25 01:20:45;;;;;;;10.77;9.33;;;2.30;83.80;;;;;;5093853;28;20174;-86
2023/11/25 01:23:11;;;;;;;22.67;20.70;;;2.00;85.00;;;;;;5075681;28;20206;-87
2023/11/25 01:25:36;;;;;;;20.40;18.70;;;1.80;85.70;;;;;;5093791;28;20706;-87
2023/11/25 01:28:03;;;;;;;17.43;15.83;;;1.70;86.30;;;;;;5075536;28;20583;-86
2023/11/25 01:30:30;;;;;;;9.57;8.77;;;1.70;86.60;;;;;;5075441;28;20195;-86
2023/11/25 01:32:58;;;;;;;10.27;9.23;;;1.60;86.60;;;;;;5093701;28;20221;-87
2023/11/25 01:35:24;;;;;;;21.10;19.40;;;1.60;86.50;;;;;;5075633;28;20185;-86
2023/11/25 01:37:50;;;;;;;22.07;20.30;;;1.60;86.30;;;;;;5075472;28;20258;-87
2023/11/25 01:40:17;;;;;;;17.53;16.07;;;1.60;86.20;;;;;;5093521;28;20215;-87
2023/11/25 01:42:42;;;;;;;10.47;9.40;;;1.60;86.30;;;;;;5093428;28;20181;-87
2023/11/25 01:45:09;;;;;;;13.87;9.87;;;1.50;86.40;;;;;;5093510;28;20175;-86
2023/11/25 01:47:36;;;;;;;12.30;9.97;;;1.50;86.50;;;;;;5075883;28;20269;-87
2023/11/25 01:50:05;;;;;;;10.77;9.67;;;1.50;86.80;;;;;;5093279;28;20214;-87
2023/11/25 01:52:32;;;;;;;12.43;10.43;;;1.40;87.00;;;;;;5075148;28;20178;-86
2023/11/25 01:55:00;;;;;;;10.00;9.20;;;1.40;87.20;;;;;;5075134;28;20174;-86
2023/11/25 01:57:27;;;;;;;12.07;10.53;;;1.40;87.30;;;;;;5075059;28;20205;-86
2023/11/25 01:59:53;;;;;;;14.70;10.30;;;1.30;87.40;;;;;;5075127;28;20182;-86
2023/11/25 02:02:20;;;;;;;13.13;9.20;;;1.30;87.60;;;;;;5093520;28;20178;-87
2023/11/25 02:04:47;;;;;;;14.13;9.20;;;1.30;87.70;;;;;;5093192;28;20177;-87
2023/11/25 02:07:13;;;;;;;11.37;8.87;;;1.40;87.70;;;;;;5074892;28;20232;-87
2023/11/25 02:09:38;;;;;;;21.27;19.67;;;1.50;87.60;;;;;;5075155;28;20210;-86
2023/11/25 02:12:04;;;;;;;20.50;18.60;;;1.40;87.60;;;;;;5093308;28;20173;-87
2023/11/25 02:14:30;;;;;;;20.63;18.60;;;1.40;87.80;;;;;;5093092;28;20188;-87
2023/11/25 02:16:57;;;;;;;20.87;19.10;;;1.50;87.80;;;;;;5075017;28;20735;-87
2023/11/25 02:19:26;;;;;;;20.57;18.77;;;1.50;87.40;;;;;;5074993;28;20219;-86
2023/11/25 02:21:52;;;;;;;21.23;19.47;;;1.70;86.80;;;;;;5093072;28;20180;-86
2023/11/25 02:24:18;;;;;;;19.33;17.73;;;1.80;86.20;;;;;;5093286;28;20265;-86
2023/11/25 02:26:44;;;;;;;20.10;18.70;;;1.80;85.90;;;;;;5074924;28;20182;-86
2023/11/25 02:29:09;;;;;;;19.43;17.83;;;1.80;85.90;;;;;;5093217;28;20520;-88
2023/11/25 02:31:38;;;;;;;13.70;8.00;;;1.80;85.90;;;;;;5093296;28;20194;-86
2023/11/25 02:34:06;;;;;;;13.73;8.13;;;1.80;85.90;;;;;;5074858;28;20189;-86
2023/11/25 02:36:32;;;;;;;10.00;8.60;;;1.80;85.80;;;;;;5074743;28;20171;-87
2023/11/25 02:38:58;;;;;;;19.67;17.93;;;1.90;85.70;;;;;;5092888;28;20180;-86
2023/11/25 02:41:24;;;;;;;16.17;14.73;;;1.80;85.70;;;;;;5074709;28;20506;-86
2023/11/25 02:43:51;;;;;;;9.57;8.07;;;1.90;85.90;;;;;;5075291;28;20714;-86
2023/11/25 02:46:17;;;;;;;12.37;8.07;;;1.80;86.00;;;;;;5093198;28;20182;-87
2023/11/25 02:48:43;;;;;;;19.43;17.10;;;1.80;86.30;;;;;;5092764;28;20335;-87
2023/11/25 02:51:09;;;;;;;21.30;19.23;;;1.80;86.60;;;;;;5074709;28;20233;-87
2023/11/25 02:53:34;;;;;;;19.43;17.40;;;1.80;86.90;;;;;;5074974;28;20170;-86
2023/11/25 02:56:00;;;;;;;9.80;7.80;;;1.80;87.00;;;;;;5076110;28;20258;-86
2023/11/25 02:58:26;;;;;;;12.17;7.70;;;1.80;87.40;;;;;;5074702;28;20187;-86
2023/11/25 03:01:01;;;;;;;17.23;15.70;;;1.80;87.40;;;;;;5074720;28;20179;-86
2023/11/25 03:03:27;;;;;;;24.73;17.53;;;1.80;87.30;;;;;;5093070;28;20182;-86
2023/11/25 03:05:53;;;;;;;22.53;13.70;;;1.80;87.40;;;;;;5078458;28;20188;-86
2023/11/25 03:08:21;;;;;;;9.20;6.83;;;1.90;87.30;;;;;;5078449;28;20190;-86
2023/11/25 03:10:47;;;;;;;9.27;6.87;;;1.90;87.10;;;;;;5096454;28;20309;-86
2023/11/25 03:13:14;;;;;;;15.00;13.63;;;1.90;87.00;;;;;;5078302;28;20689;-86
2023/11/25 03:15:40;;;;;;;16.10;14.40;;;1.90;87.00;;;;;;5096400;28;20163;-86
2023/11/25 03:18:06;;;;;;;18.40;13.70;;;2.00;87.30;;;;;;5096351;28;20210;-86
2023/11/25 03:20:33;;;;;;;10.20;7.17;;;1.90;87.50;;;;;;5078044;28;20733;-87
2023/11/25 03:23:00;;;;;;;12.97;6.33;;;2.00;87.30;;;;;;5096211;28;20260;-87
2023/11/25 03:25:27;;;;;;;16.50;14.87;;;2.00;87.30;;;;;;5078098;28;20175;-87
2023/11/25 03:27:53;;;;;;;23.87;14.93;;;2.10;87.20;;;;;;5095994;28;20593;-86
2023/11/25 03:30:19;;;;;;;21.93;15.77;;;2.10;87.20;;;;;;5096046;28;20202;-86
2023/11/25 03:32:44;;;;;;;8.50;6.77;;;2.30;86.80;;;;;;5078010;28;20177;-86
2023/11/25 03:35:10;;;;;;;8.53;7.43;;;2.30;86.40;;;;;;5096000;28;20167;-87
2023/11/25 03:37:35;;;;;;;17.40;15.97;;;2.30;86.30;;;;;;5077929;28;20269;-87
2023/11/25 03:40:01;;;;;;;18.23;16.93;;;2.30;86.20;;;;;;5077926;28;20179;-87
2023/11/25 03:42:27;;;;;;;16.50;15.20;;;2.30;86.40;;;;;;5077912;28;20178;-87
2023/11/25 03:44:52;;;;;;;11.37;6.07;;;2.30;87.30;;;;;;5077745;28;20175;-87
2023/11/25 03:47:18;;;;;;;13.87;7.47;;;2.30;87.70;;;;;;5077756;28;20191;-86
2023/11/25 03:49:44;;;;;;;15.43;14.13;;;2.40;88.20;;;;;;5095978;28;20696;-87
2023/11/25 03:52:10;;;;;;;18.03;16.17;;;2.60;87.30;;;;;;5096022;28;20277;-87
2023/11/25 03:54:37;;;;;;;19.73;9.30;;;2.70;86.90;;;;;;5095997;28;20167;-87
2023/11/25 03:57:03;;;;;;;11.87;6.47;;;2.60;87.10;;;;;;5078000;28;20214;-87
2023/11/25 03:59:29;;;;;;;12.00;6.27;;;2.50;87.50;;;;;;5095883;28;20164;-87
2023/11/25 04:01:55;;;;;;;12.43;6.57;;;2.40;88.00;;;;;;5096373;28;20200;-87
2023/11/25 04:04:21;;;;;;;18.17;7.10;;;2.50;88.80;;;;;;5095755;28;20700;-87
2023/11/25 04:06:49;;;;;;;9.40;6.00;;;2.50;89.00;;;;;;5095620;28;20175;-87
2023/11/25 04:09:15;;;;;;;17.47;6.43;;;2.30;88.90;;;;;;5095569;28;20237;-87
2023/11/25 04:11:42;;;;;;;16.90;6.70;;;2.30;89.10;;;;;;5095858;28;20190;-87
2023/11/25 04:14:08;;;;;;;12.97;6.23;;;2.20;89.10;;;;;;5077463;28;20175;-86
2023/11/25 04:16:34;;;;;;;10.77;6.03;;;2.10;89.60;;;;;;5076607;28;20176;-86
2023/11/25 04:19:00;;;;;;;12.93;6.07;;;2.10;89.80;;;;;;5077314;28;20174;-86
2023/11/25 04:21:26;;;;;;;9.83;5.00;;;2.00;90.10;;;;;;5095645;28;20189;-86
2023/11/25 04:23:54;;;;;;;12.27;5.63;;;1.90;90.70;;;;;;5095467;28;20194;-86
2023/11/25 04:26:20;;;;;;;11.27;10.13;;;1.90;91.00;;;;;;5077113;28;20193;-86
2023/11/25 04:28:46;;;;;;;12.07;10.93;;;1.90;91.30;;;;;;5095242;28;20202;-86
2023/11/25 04:31:13;;;;;;;13.57;9.57;;;1.90;91.30;;;;;;5077126;28;20230;-86
2023/11/25 04:33:39;;;;;;;14.50;10.83;;;2.00;91.20;;;;;;5076939;28;20179;-86
2023/11/25 04:36:05;;;;;;;9.60;8.37;;;2.20;91.10;;;;;;5077059;28;20179;-87
2023/11/25 04:38:30;;;;;;;16.70;9.20;;;2.20;91.10;;;;;;5095127;28;20201;-86
2023/11/25 04:40:56;;;;;;;15.53;10.20;;;2.20;91.20;;;;;;5077120;28;20646;-86
2023/11/25 04:43:22;;;;;;;14.50;7.77;;;2.30;91.30;;;;;;5095175;28;20245;-86
2023/11/25 04:45:48;;;;;;;16.07;8.33;;;2.30;91.40;;;;;;5094846;28;20186;-86
2023/11/25 04:48:13;;;;;;;16.70;7.93;;;2.50;91.60;;;;;;5076477;28;20262;-87
2023/11/25 04:50:39;;;;;;;15.87;7.90;;;2.50;91.60;;;;;;5095030;28;20187;-86
2023/11/25 04:53:05;;;;;;;11.27;9.07;;;2.70;91.80;;;;;;5076607;28;20264;-87
2023/11/25 04:55:31;;;;;;;10.80;8.33;;;2.70;91.50;;;;;;5076514;28;20181;-86
2023/11/25 04:57:57;;;;;;;22.03;4.53;;;2.80;91.50;;;;;;5076289;28;20809;-86
2023/11/25 05:00:22;;;;;;;18.27;4.60;;;2.70;91.40;;;;;;5076496;28;20178;-87
2023/11/25 05:02:48;;;;;;;7.93;4.27;;;2.70;91.70;;;;;;5076538;28;20182;-87
2023/11/25 05:05:13;;;;;;;5.67;3.00;;;2.70;92.30;;;;;;5076530;28;20278;-87
2023/11/25 05:07:40;;;;;;;12.33;4.00;;;2.70;92.70;;;;;;5094703;28;20190;-86
2023/11/25 05:10:09;;;;;;;14.33;4.57;;;2.80;92.80;;;;;;5094294;28;20205;-87
2023/11/25 05:12:35;;;;;;;15.30;3.87;;;2.70;92.90;;;;;;5094173;28;20222;-87
2023/11/25 05:15:00;;;;;;;13.03;3.93;;;2.80;93.20;;;;;;5076107;28;20642;-86
2023/11/25 05:17:26;;;;;;;17.63;3.90;;;2.80;93.30;;;;;;5076167;28;20255;-87
2023/11/25 05:19:52;;;;;;;20.10;7.17;;;2.80;93.40;;;;;;5094299;28;20178;-86
2023/11/25 05:22:17;;;;;;;17.17;7.30;;;2.80;93.50;;;;;;5094298;28;20170;-86
2023/11/25 05:24:43;;;;;;;18.03;7.60;;;2.80;93.60;;;;;;5094182;28;20194;-86
2023/11/25 05:27:09;;;;;;;14.63;4.43;;;2.80;93.60;;;;;;5093211;28;20687;-86
2023/11/25 05:29:34;;;;;;;12.93;4.00;;;2.70;93.60;;;;;;5093870;28;20198;-86
2023/11/25 05:32:00;;;;;;;19.53;7.70;;;2.70;93.70;;;;;;5093859;28;20671;-87
2023/11/25 05:34:26;;;;;;;17.40;7.23;;;2.80;94.00;;;;;;5094028;28;20170;-87
2023/11/25 05:36:52;;;;;;;16.83;7.50;;;2.80;94.10;;;;;;5093806;28;20654;-86
2023/11/25 05:39:20;;;;;;;13.40;6.13;;;2.80;94.10;;;;;;5093860;28;20162;-87
2023/11/25 05:41:49;;;;;;;16.13;6.67;;;2.90;94.20;;;;;;5093631;28;20170;-87
2023/11/25 05:44:14;;;;;;;19.80;7.03;;;3.00;94.20;;;;;;5093675;28;20163;-86
2023/11/25 05:46:40;;;;;;;13.33;7.13;;;3.00;94.10;;;;;;5093883;28;20658;-87
2023/11/25 05:49:08;;;;;;;12.87;4.77;;;3.00;94.10;;;;;;5093474;28;20187;-86
2023/11/25 05:51:36;;;;;;;10.00;3.73;;;3.00;94.10;;;;;;5075294;28;20210;-87
2023/11/25 05:54:02;;;;;;;12.27;4.23;;;3.00;94.10;;;;;;5093426;28;20163;-86
2023/11/25 05:56:29;;;;;;;13.23;6.20;;;2.90;94.00;;;;;;5093579;28;20245;-86
2023/11/25 05:58:55;;;;;;;20.00;7.67;;;2.80;94.10;;;;;;5075286;28;20744;-87
2023/11/25 06:01:21;;;;;;;9.50;3.40;;;2.80;94.10;;;;;;5075420;28;20214;-86
2023/11/25 06:03:50;;;;;;;10.43;3.47;;;2.80;94.10;;;;;;5093248;28;20175;-87
2023/11/25 06:06:16;;;;;;;9.57;3.30;;;2.80;94.10;;;;;;5093480;28;20167;-87
2023/11/25 06:08:42;;;;;;;7.27;6.40;;;2.90;94.10;;;;;;5075061;28;20195;-87
2023/11/25 06:11:07;;;;;;;8.93;7.47;;;2.90;94.10;;;;;;5093101;28;20243;-87
2023/11/25 06:13:33;;;;;;;5.70;3.10;;;3.00;94.10;;;;;;5075443;28;20177;-87
2023/11/25 06:15:58;;;;;;;2.93;2.63;;;2.90;94.00;;;;;;5093213;28;20178;-87
2023/11/25 06:18:24;;;;;;;6.93;3.37;;;2.90;93.90;;;;;;5093192;28;20310;-87
2023/11/25 06:20:50;;;;;;;8.13;7.43;;;2.80;93.90;;;;;;5093369;28;20172;-87
2023/11/25 06:23:16;;;;;;;8.80;6.50;;;2.80;93.90;;;;;;5075117;28;20175;-87
2023/11/25 06:25:42;;;;;;;3.33;3.03;;;2.80;93.90;;;;;;5075108;28;20179;-87
2023/11/25 06:28:12;;;;;;;6.80;3.20;;;2.80;94.10;;;;;;5093167;28;20200;-87
2023/11/25 06:30:39;;;;;;;6.47;2.70;;;2.80;94.00;;;;;;5093321;28;20188;-87
2023/11/25 06:33:05;;;;;;;3.20;2.90;;;2.70;93.90;;;;;;5075099;28;20178;-87
2023/11/25 06:35:30;;;;;;;3.67;3.10;;;2.70;93.90;;;;;;5093030;28;20169;-87
2023/11/25 06:37:56;;;;;;;3.03;2.80;;;2.60;93.90;;;;;;5074942;28;20584;-87
2023/11/25 06:40:21;;;;;;;7.57;3.00;;;2.60;94.00;;;;;;5096553;28;20277;-87
2023/11/25 06:42:47;;;;;;;3.43;2.60;;;2.60;94.00;;;;;;5079474;28;20647;-86
2023/11/25 06:45:13;;;;;;;6.73;2.83;;;2.60;94.20;;;;;;5079066;28;20187;-87
2023/11/25 06:47:39;;;;;;;3.17;2.87;;;2.70;94.30;;;;;;5097155;28;20202;-86
2023/11/25 06:50:05;;;;;;;6.10;2.80;;;2.70;94.30;;;;;;5078724;28;20207;-86
2023/11/25 06:52:31;;;;;;;6.50;2.63;;;2.60;94.30;;;;;;5097086;28;20200;-87
2023/11/25 06:54:56;;;;;;;11.57;3.10;;;2.50;94.30;;;;;;5078696;28;20167;-87
2023/11/25 06:57:22;;;;;;;8.43;6.10;;;2.50;94.30;;;;;;5078626;28;20560;-86
2023/11/25 06:59:48;;;;;;;13.17;5.63;;;2.50;94.30;;;;;;5096900;28;20171;-87
2023/11/25 07:02:14;;;;;;;9.27;5.67;;;2.40;94.30;;;;;;5096749;28;20187;-86
2023/11/25 07:04:40;;;;;;;6.77;6.07;;;2.40;94.20;;;;;;5078786;28;20175;-87
2023/11/25 07:07:05;;;;;;;6.53;5.23;;;2.40;94.30;;;;;;5096767;28;20244;-86
2023/11/25 07:09:31;;;;;;;6.50;5.90;;;2.50;94.40;;;;;;5078578;28;20179;-87
2023/11/25 07:11:57;;;;;;;9.57;5.00;;;2.60;94.50;;;;;;5096513;28;20255;-87
2023/11/25 07:14:22;;;;;;;5.27;4.80;;;2.70;94.50;;;;;;5096574;28;20174;-87
2023/11/25 07:16:48;;;;;;;7.23;4.90;;;2.70;94.40;;;;;;5096350;28;20195;-86
2023/11/25 07:19:14;;;;;;;6.40;5.80;;;2.70;94.40;;;;;;5096593;28;20182;-87
2023/11/25 07:21:39;;;;;;;5.07;4.63;;;2.70;94.40;;;;;;5096441;28;20229;-87
2023/11/25 07:24:08;;;;;;;4.67;4.37;;;2.70;94.40;;;;;;5096390;28;20551;-87
2023/11/25 07:26:39;;;;;;;4.37;3.97;;;2.70;94.40;;;;;;5096371;28;20662;-86
2023/11/25 07:29:05;;;;;;;5.10;2.63;;;2.70;94.30;;;;;;5096278;28;20198;-87
2023/11/25 07:31:32;;;;;;;4.97;2.80;;;2.70;94.40;;;;;;5096393;28;20256;-87
2023/11/25 07:33:58;;;;;;;7.23;2.80;;;2.70;94.40;;;;;;5078024;28;20179;-87
2023/11/25 07:36:24;;;;;;;6.40;3.53;;;2.80;94.40;;;;;;5096469;28;20192;-87
2023/11/25 07:38:49;;;;;;;5.90;3.67;;;2.80;94.30;;;;;;5095893;28;20247;-86
2023/11/25 07:41:15;;;;;;;4.90;3.37;;;2.80;94.30;;;;;;5096057;28;20238;-87
2023/11/25 07:43:41;;;;;;;9.33;3.00;;;2.80;94.20;;;;;;5077895;28;20190;-87
2023/11/25 07:46:08;;;;;;;8.90;3.67;;;2.80;94.30;;;;;;5095817;28;20167;-87
2023/11/25 07:48:33;;;;;;;4.23;2.80;;;2.80;94.30;;;;;;5095522;28;20206;-87
2023/11/25 07:50:59;;;;;;;6.57;3.27;;;2.80;94.40;;;;;;5094902;28;20211;-87
2023/11/25 07:53:24;;;;;;;11.23;4.47;;;2.90;94.40;;;;;;5077742;28;20173;-86
2023/11/25 07:55:51;;;;;;;7.40;3.20;;;2.80;94.30;;;;;;5095726;28;20200;-87
2023/11/25 07:58:17;;;;;;;6.33;3.20;;;2.80;94.30;;;;;;5077637;28;20197;-87
2023/11/25 08:00:43;;;;;;;9.73;3.53;;;2.80;94.30;;;;;;5077625;28;20176;-87
2023/11/25 08:03:09;;;;;;;8.80;6.27;;;2.90;94.30;;;;;;5095845;28;20533;-87
2023/11/25 08:05:34;;;;;;;12.77;6.60;;;2.90;94.30;;;;;;5077713;28;20184;-87
2023/11/25 08:08:00;;;;;;;16.90;6.43;;;2.90;94.30;;;;;;5077290;28;20198;-87
2023/11/25 08:10:31;;;;;;;10.10;6.23;;;2.90;94.30;;;;;;5077990;28;20205;-87
2023/11/25 08:12:57;;;;;;;7.53;6.93;;;3.10;94.50;;;;;;5095756;28;20153;-87
2023/11/25 08:15:23;;;;;;;8.20;5.87;;;3.30;94.50;;;;;;5095406;28;20655;-87
2023/11/25 08:17:48;;;;;;;7.83;5.90;;;3.30;94.30;;;;;;5077444;28;20197;-88
2023/11/25 08:20:14;;;;;;;6.33;5.67;;;3.30;94.30;;;;;;5077718;28;20276;-87
2023/11/25 08:22:40;;;;;;;10.63;5.60;;;3.30;94.20;;;;;;5095560;28;20254;-87
2023/11/25 08:25:10;;;;;;;10.70;6.07;;;3.20;94.20;;;;;;5095657;28;20221;-87
2023/11/25 08:27:39;;;;;;;8.20;5.70;;;3.20;94.20;;;;;;5094999;28;20193;-87
2023/11/25 08:30:08;;;;;;;7.53;5.77;;;3.20;94.20;;;;;;5077854;28;20274;-87
2023/11/25 08:32:44;;;;;;;13.27;5.87;;;3.30;94.40;;;;;;5095129;28;20173;-87
2023/11/25 08:35:10;;;;;;;11.43;4.87;;;3.20;94.30;;;;;;5094962;28;20146;-87
2023/11/25 08:37:39;;;;;;;4.83;2.97;;;3.40;94.40;;;;;;5094866;28;20606;-87
2023/11/25 08:40:09;;;;;;;13.90;3.57;;;3.50;94.30;;;;;;5094918;28;20181;-87
2023/11/25 08:42:35;;;;;;;12.33;6.27;;;3.50;94.30;;;;;;5077015;28;20520;-87
2023/11/25 08:45:02;;;;;;;14.90;6.73;;;3.70;94.30;;;;;;5076650;28;20184;-87
2023/11/25 08:47:28;;;;;;;11.20;5.03;;;3.60;94.20;;;;;;5095056;28;20187;-87
2023/11/25 08:49:53;;;;;;;13.03;5.77;;;3.70;94.20;;;;;;5094378;28;20281;-87
2023/11/25 08:52:19;;;;;;;31.00;5.97;;;3.70;94.20;;;;;;5094961;28;20170;-87
2023/11/25 08:54:48;;;;;;;16.03;7.60;;;3.70;94.10;;;;;;5076323;28;20677;-86
2023/11/25 08:57:16;;;;;;;15.77;7.53;;;3.70;94.10;;;;;;5094868;28;20664;-86
2023/11/25 08:59:42;;;;;;;12.90;5.67;;;3.80;94.20;;;;;;5076363;28;20173;-87
2023/11/25 09:02:12;;;;;;;11.23;5.50;;;3.70;94.10;;;;;;5075846;28;20649;-87
2023/11/25 09:04:42;;;;;;;14.33;5.80;;;3.80;94.10;;;;;;5076139;28;20658;-87
2023/11/25 09:07:13;;;;;;;25.10;9.57;;;3.80;94.00;;;;;;5076228;28;20198;-87
2023/11/25 09:09:39;;;;;;;20.53;8.93;;;3.90;94.00;;;;;;5094174;28;20153;-87
2023/11/25 09:12:05;;;;;;;15.07;6.93;;;3.90;93.90;;;;;;5076016;28;20205;-87
2023/11/25 09:14:31;;;;;;;14.73;6.77;;;4.00;93.80;;;;;;5094064;28;20190;-87
2023/11/25 09:16:56;;;;;;;20.33;7.13;;;4.00;93.70;;;;;;5075905;28;20677;-87
2023/11/25 09:19:23;;;;;;;25.10;9.93;;;3.90;93.50;;;;;;5075865;28;20162;-86
2023/11/25 09:21:49;;;;;;;20.93;9.77;;;3.90;93.40;;;;;;5075751;28;20274;-87
2023/11/25 09:24:15;;;;;;;13.03;7.37;;;3.90;93.30;;;;;;5075759;28;20213;-87
2023/11/25 09:26:40;;;;;;;17.07;7.40;;;3.90;93.30;;;;;;5093892;28;20228;-87
2023/11/25 09:29:06;;;;;;;13.80;8.90;;;3.80;93.10;;;;;;5093780;28;20170;-87
2023/11/25 09:31:32;;;;;;;15.83;8.83;;;3.80;93.00;;;;;;5075474;28;20198;-86
2023/11/25 09:33:59;;;;;;;17.73;8.77;;;3.80;93.00;;;;;;5093716;28;20185;-87
2023/11/25 09:36:25;;;;;;;20.23;9.13;;;3.90;92.90;;;;;;5093882;28;20295;-87
2023/11/25 09:38:51;;;;;;;14.50;8.27;;;4.00;93.00;;;;;;5093775;28;20637;-87
2023/11/25 09:41:17;;;;;;;15.93;8.10;;;4.00;93.00;;;;;;5075472;28;20261;-87
2023/11/25 09:43:43;;;;;;;11.90;8.90;;;4.10;92.90;;;;;;5075483;28;20557;-87
2023/11/25 09:46:09;;;;;;;12.07;8.13;;;4.20;92.90;;;;;;5075294;28;20178;-87
2023/11/25 09:48:35;;;;;;;17.10;9.03;;;4.30;92.70;;;;;;5075344;28;20223;-87
2023/11/25 09:51:03;;;;;;;10.80;8.53;;;4.30;92.60;;;;;;5093734;28;20278;-87
2023/11/25 09:53:31;;;;;;;15.70;8.07;;;4.30;92.50;;;;;;5075415;28;20548;-87
2023/11/25 09:56:05;;;;;;;16.00;9.87;;;4.30;92.40;;;;;;5093745;28;20167;-87
2023/11/25 09:58:34;;;;;;;13.73;11.73;;;4.40;92.30;;;;;;5075559;28;20186;-87
2023/11/25 10:01:00;;;;;;;14.53;12.13;;;4.50;92.30;;;;;;5093507;28;20740;-87
2023/11/25 10:03:31;;;;;;;18.30;12.67;;;4.50;92.10;;;;;;5075515;28;20650;-88
2023/11/25 10:05:57;;;;;;;20.17;13.20;;;4.40;92.10;;;;;;5075770;28;20273;-87
2023/11/25 10:08:23;;;;;;;13.03;12.00;;;4.40;91.80;;;;;;5093455;28;20197;-87
2023/11/25 10:11:07;;;;;;;15.63;12.07;;;4.40;91.70;;;;;;5075205;28;20194;-87
2023/11/25 10:13:38;;;;;;;13.77;12.03;;;4.40;91.70;;;;;;5074761;28;20162;-87
2023/11/25 10:16:06;;;;;;;16.87;12.50;;;4.60;91.70;;;;;;5075563;28;20171;-86
2023/11/25 10:18:32;;;;;;;11.83;9.70;;;4.60;91.50;;;;;;5093248;28;20248;-87
2023/11/25 10:20:58;;;;;;;13.37;11.80;;;4.70;91.50;;;;;;5093538;28;20186;-89
2023/11/25 10:23:25;;;;;;;14.57;10.33;;;4.80;91.30;;;;;;5093285;28;20179;-87
2023/11/25 10:25:54;;;;;;;13.07;10.90;;;4.80;90.80;;;;;;5075048;28;20181;-87
2023/11/25 10:28:21;;;;;;;13.43;11.87;;;4.80;90.70;;;;;;5093052;28;20600;-87
2023/11/25 10:30:56;;;;;;;14.93;12.07;;;5.00;90.60;;;;;;5093046;28;20201;-87
2023/11/25 10:33:24;;;;;;;15.10;13.50;;;5.00;90.60;;;;;;5075046;28;20534;-87
2023/11/25 10:35:50;;;;;;;19.13;14.40;;;5.00;90.50;;;;;;5093176;28;20185;-88
2023/11/25 10:38:16;;;;;;;16.03;14.03;;;5.10;90.30;;;;;;5075482;28;20198;-88
2023/11/25 10:40:42;;;;;;;13.43;11.93;;;5.30;90.30;;;;;;5093341;28;20170;-89
2023/11/25 10:43:08;;;;;;;16.50;12.90;;;5.30;90.30;;;;;;5076124;28;20248;-88
2023/11/25 10:45:34;;;;;;;16.20;14.50;;;5.40;90.10;;;;;;5075400;28;20178;-88
2023/11/25 10:48:00;;;;;;;14.27;11.00;;;5.50;89.80;;;;;;5075098;28;20203;-87
2023/11/25 10:50:26;;;;;;;12.27;11.27;;;5.60;89.40;;;;;;5075279;28;20569;-88
2023/11/25 10:52:57;;;;;;;18.77;17.20;;;5.60;88.50;;;;;;5093582;28;20186;-88
2023/11/25 10:55:26;;;;;;;18.20;16.80;;;5.70;87.90;;;;;;5075609;28;20217;-88
2023/11/25 10:57:52;;;;;;;19.07;17.43;;;5.70;87.20;;;;;;5075205;28;20198;-89
2023/11/25 11:00:19;;;;;;;14.20;13.00;;;5.80;86.40;;;;;;5093474;28;20171;-90
2023/11/25 11:02:57;;;;;;;14.50;13.10;;;5.80;86.30;;;;;;5075414;28;20563;-90
2023/11/25 11:05:47;;;;;;;18.90;17.30;;;6.00;86.40;;;;;;5075457;28;20174;-90
2023/11/25 11:08:18;;;;;;;22.17;19.83;;;6.10;86.00;;;;;;5075005;28;20202;-87
2023/11/25 11:10:54;;;;;;;18.97;17.27;;;6.20;84.90;;;;;;5074757;28;20273;-87
2023/11/25 11:13:35;;;;;;;15.00;13.57;;;6.30;84.90;;;;;;5093025;28;20158;-87
2023/11/25 11:16:10;;;;;;;14.37;13.07;;;6.40;84.60;;;;;;5076093;28;20171;-89
2023/11/25 11:18:39;;;;;;;19.47;17.87;;;6.60;84.50;;;;;;5076694;28;20194;-87
2023/11/25 11:21:06;;;;;;;20.43;18.57;;;6.70;84.30;;;;;;5092822;28;20225;-87
2023/11/25 11:23:37;;;;;;;20.67;19.17;;;6.70;84.00;;;;;;5074621;28;20208;-88
2023/11/25 11:26:27;;;;;;;15.33;13.80;;;6.50;83.40;;;;;;5093948;28;20219;-87
2023/11/25 11:29:14;;;;;;;16.90;15.67;;;6.50;83.80;;;;;;5078103;28;20207;-88
2023/11/25 11:32:03;;;;;;;13.80;12.60;;;6.70;83.30;;;;;;5078063;28;20243;-87
2023/11/25 11:34:31;;;;;;;11.83;10.67;;;6.70;83.10;;;;;;5078311;28;20219;-87
2023/11/25 11:36:56;;;;;;;13.77;11.43;;;6.80;83.60;;;;;;5078190;28;20198;-88
2023/11/25 11:39:55;;;;;;;14.77;13.20;;;6.90;83.60;;;;;;5077895;28;20182;-88
2023/11/25 11:42:29;;;;;;;15.23;14.13;;;6.70;81.70;;;;;;5079044;28;20177;-90
2023/11/25 11:45:11;;;;;;;15.53;14.13;;;6.70;82.00;;;;;;5078971;28;20163;-89
2023/11/25 11:47:44;;;;;;;14.07;12.80;;;6.80;81.30;;;;;;5096325;28;20190;-90
2023/11/25 11:50:10;;;;;;;14.50;13.20;;;6.90;81.70;;;;;;5098343;28;20186;-88
2023/11/25 11:52:46;;;;;;;15.87;14.50;;;6.90;80.70;;;;;;5077861;28;20184;-86
2023/11/25 11:55:57;;;;;;;14.50;13.20;;;6.70;80.30;;;;;;5078241;28;20177;-88
2023/11/25 11:58:28;;;;;;;16.70;15.07;;;6.90;81.00;;;;;;5050257;28;20198;-88
2023/11/25 12:01:03;;;;;;;24.97;23.17;;;6.90;80.30;;;;;;5078527;28;20163;-87
2023/11/25 12:03:33;;;;;;;26.13;24.43;;;6.90;79.80;;;;;;5095662;28;20661;-87
2023/11/25 12:05:59;;;;;;;26.80;24.80;;;7.10;79.90;;;;;;5095804;28;20220;-88
2023/11/25 12:08:26;;;;;;;29.00;26.73;;;7.20;80.00;;;;;;5095316;28;20692;-88
2023/11/25 12:10:53;;;;;;;29.53;27.17;;;7.20;78.90;;;;;;5077344;28;20275;-88
2023/11/25 12:13:25;;;;;;;29.73;27.43;;;7.30;79.50;;;;;;5077540;28;20177;-88
2023/11/25 12:15:59;;;;;;;31.60;29.30;;;7.40;78.70;;;;;;5095616;28;20166;-87
2023/11/25 12:18:25;;;;;;;31.27;29.07;;;7.50;78.00;;;;;;5095222;28;20178;-87
2023/11/25 12:20:51;;;;;;;31.07;28.63;;;7.60;78.20;;;;;;5095300;28;20170;-87
2023/11/25 12:23:17;;;;;;;29.93;27.63;;;7.60;77.80;;;;;;5095293;28;20166;-87
2023/11/25 12:25:43;;;;;;;28.53;26.30;;;7.60;78.20;;;;;;5095188;28;20213;-87
2023/11/25 12:28:11;;;;;;;28.70;26.50;;;7.70;77.60;;;;;;5078132;28;20198;-87
2023/11/25 12:30:38;;;;;;;30.47;28.20;;;7.50;77.00;;;;;;5094970;28;20202;-87
2023/11/25 12:33:08;;;;;;;30.87;28.33;;;7.40;76.30;;;;;;5076869;28;20184;-87
2023/11/25 12:35:39;;;;;;;30.57;28.33;;;7.50;77.10;;;;;;5077397;28;20269;-88
2023/11/25 12:38:05;;;;;;;28.73;26.83;;;7.60;76.70;;;;;;5094555;28;20706;-87
2023/11/25 12:40:32;;;;;;;29.53;27.43;;;7.60;75.00;;;;;;5094929;28;20171;-89
2023/11/25 12:42:57;;;;;;;27.53;25.07;;;7.60;74.90;;;;;;5076906;28;20175;-87
2023/11/25 12:45:34;;;;;;;25.73;23.60;;;7.50;75.40;;;;;;5076906;28;20355;-87